Terminal Aerodrome Forecast
Issued by NWS Burlington, VT

Home | Current Version | Previous Version | Text Only | Print | Product List | Glossary On
Versions: 1 2 3 4 5 6 7 8 9 10 11
000
FTUS41 KBTV 011127
TAFBTV
TAF
KBTV 011127Z 0112/0212 16005KT P6SM OVC150
     FM011500 17010G17KT P6SM OVC070
     FM011900 17010G20KT 3SM -SN BR BKN025 OVC060
     FM020000 18008KT 2SM -SN BR OVC020
     FM020900 29006KT 2SM -SN BR OVC020=

USA.gov is the U.S. government's official web portal to all federal, state and local government web resources and services.